Banning, CA (92220)

4:05 AM PST on December 03, 2016 (GMT -0800)
Aspen Ln | | Change Station
Active Advisory: Wind Advisory

Elev 2648 ft 33.94 °N, 116.92 °W | Updated 27 seconds ago

Clear
Clear
36.7 °F
Feels Like 37 °F
N
1.0
Wind Variable Wind from NE

Today
High -- | Low -- °F
--% Chance of Precip.
Yesterday
High -- | Low -- °F
Precip. -- in
Pressure 30.07 in
Visibility 10.0 miles
Clouds Clear
Windchill 37 °F
Dew Point 8 °F
Humidity 30%
Rainfall 0.00 in
Snow Depth Not available.
6:36 AM 4:38 PM
Waxing Crescent, 14% visible
METAR KRIV 031158Z AUTO 35015KT 10SM CLR 10/M13 A3007 RMK AO2 PK WND 36033/09 SLP181 T00991132 10109 20084 55005 PWINO
Pressure 30.07 in
Visibility 10.0 miles
Clouds Clear
Windchill 37 °F
Dew Point 8 °F
Humidity 30%
Rainfall 0.00 in
Snow Depth Not available.
6:36 AM 4:38 PM
Waxing Crescent, 14% visible
METAR KRIV 031158Z AUTO 35015KT 10SM CLR 10/M13 A3007 RMK AO2 PK WND 36033/09 SLP181 T00991132 10109 20084 55005 PWINO

10-Day Weather Forecast

Almanac

Astronomy

Dec. 03, 2016 Rise Set
Actual Time
Civil Twilight
Nautical Twilight
Astronomical Twilight
Moon
Length of Visible Light
Length of Day
Tomorrow will be .
, % of the Moon is Illuminated

Today's Extremes

State Highs State Lows

Community

WunderPhotos

Upload Photos

1,955,441 photos uploaded!

WunderBlog® & News

Nearby

Air Quality

  Air Quality AQ Index Pollutant
Not available.

Snow Depth

Station Depth Elevation

Earthquake Activity

City Distance Mag. Time & Date
Minimum magnitude displayed is 2.5.

Coastal Water Temperatures

Place Temperature

Stations

Nearby Weather Stations

Station Location Temp. Windchill Dew Point Humidity Wind Precip. Elev Updated Type
                   

Watches & Warnings

Wind Advisory
Issued: 9:22 PM PST Dec. 2, 2016 – National Weather Service

... Wind Advisory remains in effect until 2 PM PST Saturday...

* winds... north to northeast 20 to 30 mph with gusts t0 50 mph...
   strongest along the Little San Bernardino Mountains.

* Timing... through Saturday afternoon.

* Location... Coachella Valley including the San Gorgonio Pass...
and the San Diego County deserts.

* Impacts... hazardous driving conditions for high profile
vehicles. Blowing dust could reduce visibility at times.

* Outlook... lighter winds Saturday night and Sunday.

Precautionary/preparedness actions...

A Wind Advisory means that winds of 35 mph are expected. Winds
this strong can make driving difficult... especially for high
profile vehicles. Use extra caution.